createdAt,value
2023-03-10T00:02:13.577Z,4.93
2023-03-10T00:07:15.713Z,3.97
2023-03-10T00:12:18.606Z,3.90
2023-03-10T00:17:20.810Z,3.10
2023-03-10T00:22:23.151Z,2.20
2023-03-10T00:27:25.309Z,2.20
2023-03-10T00:32:28.498Z,2.42
2023-03-10T00:37:30.682Z,2.50
2023-03-10T00:42:32.826Z,2.55
2023-03-10T00:47:35.013Z,2.78
2023-03-10T00:52:37.133Z,2.80
2023-03-10T00:57:39.301Z,2.78
2023-03-10T01:02:41.444Z,1.60
2023-03-10T01:07:43.693Z,1.67
2023-03-10T01:12:45.850Z,1.90
2023-03-10T01:17:47.971Z,1.92
2023-03-10T01:22:50.121Z,1.55
2023-03-10T01:27:52.387Z,1.55
2023-03-10T01:32:55.533Z,1.75
2023-03-10T01:37:58.469Z,1.90
2023-03-10T01:43:22.356Z,1.85
2023-03-10T01:48:24.899Z,2.00
2023-03-10T01:53:28.840Z,1.70
2023-03-10T01:58:40.901Z,1.90
2023-03-10T02:03:55.337Z,1.95
2023-03-10T02:09:00.268Z,2.03
2023-03-10T02:14:06.604Z,2.13
2023-03-10T02:19:23.852Z,2.20
2023-03-10T02:24:25.918Z,1.92
2023-03-10T02:29:42.633Z,2.17
2023-03-10T02:34:47.930Z,1.63
2023-03-10T02:39:50.322Z,1.73
2023-03-10T02:44:54.416Z,1.88
2023-03-10T02:49:57.335Z,1.90
2023-03-10T02:54:59.429Z,2.20
2023-03-10T03:00:02.685Z,2.13
2023-03-10T03:05:05.420Z,1.60
2023-03-10T03:10:07.912Z,1.80
2023-03-10T03:15:10.371Z,1.85
2023-03-10T03:20:14.792Z,1.90
2023-03-10T03:25:19.437Z,1.95
2023-03-10T03:30:26.897Z,1.95
2023-03-10T03:35:32.650Z,2.47
2023-03-10T03:40:37.202Z,3.28
2023-03-10T03:45:39.510Z,3.00
2023-03-10T03:50:41.698Z,2.90
2023-03-10T03:55:43.832Z,2.67
2023-03-10T04:00:46.008Z,2.75
2023-03-10T04:05:48.141Z,2.85
2023-03-10T04:10:54.473Z,3.10
2023-03-10T04:16:00.309Z,2.97
2023-03-10T04:21:03.182Z,4.03
2023-03-10T04:26:09.719Z,3.53
2023-03-10T04:31:16.206Z,3.55
2023-03-10T04:36:19.339Z,4.60
2023-03-10T04:41:21.843Z,3.88
2023-03-10T04:46:24.104Z,6.45
2023-03-10T04:51:26.383Z,6.78
2023-03-10T04:56:28.900Z,6.28
2023-03-10T05:01:33.504Z,6.85
2023-03-10T05:06:35.700Z,7.32
2023-03-10T05:11:38.005Z,5.70
2023-03-10T05:16:40.311Z,5.45
2023-03-10T05:21:42.547Z,7.22
2023-03-10T05:26:44.682Z,7.57
2023-03-10T05:31:48.478Z,6.43
2023-03-10T05:36:50.693Z,5.30
2023-03-10T05:41:52.870Z,6.43
2023-03-10T05:46:55.166Z,5.93
2023-03-10T05:51:58.314Z,6.45
2023-03-10T05:57:00.429Z,6.15
2023-03-10T06:02:02.593Z,5.72
2023-03-10T06:07:05.310Z,6.22
2023-03-10T06:12:07.841Z,6.50
2023-03-10T06:17:11.237Z,8.30
2023-03-10T06:22:13.374Z,6.75
2023-03-10T06:27:15.584Z,5.95
2023-03-10T06:32:17.827Z,5.43
2023-03-10T06:37:20.976Z,5.35
2023-03-10T06:42:23.167Z,5.43
2023-03-10T06:47:25.445Z,4.85
2023-03-10T06:52:27.742Z,5.00
2023-03-10T06:57:29.890Z,5.05
2023-03-10T07:02:32.257Z,5.30
2023-03-10T07:07:35.018Z,5.93
2023-03-10T07:12:37.208Z,6.68
2023-03-10T07:17:39.315Z,6.85
2023-03-10T07:22:41.980Z,7.30
2023-03-10T07:27:44.122Z,7.95
2023-03-10T07:32:46.363Z,8.40
2023-03-10T07:37:48.555Z,9.18
2023-03-10T07:42:55.069Z,8.38
2023-03-10T07:47:57.400Z,8.95
2023-03-10T07:52:59.956Z,8.57
2023-03-10T07:58:02.145Z,9.82
2023-03-10T08:03:04.363Z,8.13
2023-03-10T08:08:06.849Z,7.57
2023-03-10T08:13:09.060Z,6.70
2023-03-10T08:18:11.290Z,7.80
2023-03-10T08:23:15.169Z,7.97
2023-03-10T08:28:18.727Z,9.35
2023-03-10T08:33:22.450Z,10.25
2023-03-10T08:38:24.794Z,7.72
2023-03-10T08:43:27.874Z,9.40
2023-03-10T08:48:30.141Z,8.80
2023-03-10T08:53:34.171Z,8.82
2023-03-10T08:58:59.295Z,7.13
2023-03-10T09:04:05.268Z,5.82
2023-03-10T09:09:10.465Z,6.03
2023-03-10T09:14:16.404Z,6.45
2023-03-10T09:19:21.970Z,6.68
2023-03-10T09:24:25.329Z,6.80
2023-03-10T09:29:42.267Z,6.65
2023-03-10T09:34:46.385Z,8.07
2023-03-10T09:39:48.632Z,9.52
2023-03-10T09:45:24.364Z,10.13
2023-03-10T09:50:45.534Z,6.22
2023-03-10T09:55:49.120Z,4.57
2023-03-10T10:00:51.387Z,4.95
2023-03-10T10:05:56.326Z,5.53
2023-03-10T10:11:00.343Z,5.38
2023-03-10T10:16:33.638Z,4.57
2023-03-10T10:21:48.193Z,4.95
2023-03-10T10:26:50.592Z,5.30
2023-03-10T10:32:14.723Z,5.32
2023-03-10T10:37:37.199Z,6.20
2023-03-10T10:42:54.980Z,5.72
2023-03-10T10:47:57.259Z,5.38
2023-03-10T10:53:24.748Z,5.35
2023-03-10T10:58:38.861Z,5.75
2023-03-10T11:03:43.758Z,6.07
2023-03-10T11:14:13.469Z,4.45
2023-03-10T11:19:22.826Z,4.70
2023-03-10T11:24:54.459Z,4.50
2023-03-10T11:30:32.675Z,4.88
2023-03-10T11:35:46.662Z,4.50
2023-03-10T11:41:00.058Z,4.70
2023-03-10T11:46:09.313Z,4.30
2023-03-10T11:51:34.647Z,5.15
2023-03-10T11:56:38.609Z,4.20
2023-03-10T12:01:59.219Z,3.85
2023-03-10T12:07:04.923Z,3.58
2023-03-10T12:12:08.677Z,3.35
2023-03-10T12:17:15.872Z,2.70
2023-03-10T12:22:37.645Z,4.07
2023-03-10T12:28:22.697Z,3.58
2023-03-10T12:33:31.549Z,3.13
2023-03-10T12:38:43.008Z,4.00
2023-03-10T12:43:47.921Z,3.83
2023-03-10T12:49:07.033Z,3.60
2023-03-10T12:54:20.998Z,3.10
2023-03-10T12:59:50.620Z,2.53
2023-03-10T13:05:05.637Z,4.00
2023-03-10T13:10:19.304Z,3.92
2023-03-10T13:15:28.001Z,3.83
2023-03-10T13:20:30.791Z,4.07
2023-03-10T13:25:37.080Z,4.20
2023-03-10T13:30:39.515Z,3.72
2023-03-10T13:35:42.456Z,3.22
2023-03-10T13:40:48.405Z,3.33
2023-03-10T13:46:01.018Z,4.20
2023-03-10T13:51:09.406Z,4.07
2023-03-10T13:56:27.565Z,3.58
2023-03-10T14:01:34.956Z,3.30
2023-03-10T14:06:38.637Z,3.88
2023-03-10T14:11:44.950Z,4.22
2023-03-10T14:16:53.874Z,5.20
2023-03-10T14:22:01.648Z,4.55
2023-03-10T14:27:04.069Z,2.35
2023-03-10T14:32:08.441Z,2.85
2023-03-10T14:37:10.571Z,1.80
2023-03-10T14:42:26.466Z,1.90
2023-03-10T14:47:28.869Z,1.92
2023-03-10T14:52:31.281Z,1.90
2023-03-10T14:57:33.479Z,1.25
2023-03-10T15:02:35.697Z,1.38
2023-03-10T15:07:37.897Z,1.25
2023-03-10T15:12:44.096Z,1.35
2023-03-10T15:17:46.722Z,1.05
2023-03-10T15:22:49.934Z,1.13
2023-03-10T15:27:53.298Z,1.40
2023-03-10T15:32:55.767Z,1.48
2023-03-10T15:37:58.897Z,1.52
2023-03-10T15:43:01.794Z,1.65
2023-03-10T15:48:04.165Z,1.52
2023-03-10T15:53:06.365Z,1.60
2023-03-10T15:58:10.502Z,2.38
2023-03-10T16:03:18.236Z,2.10
2023-03-10T16:08:20.732Z,2.15
2023-03-10T16:13:24.326Z,1.90
2023-03-10T16:18:27.605Z,2.10
2023-03-10T16:23:32.186Z,2.40
2023-03-10T16:28:35.626Z,2.25
2023-03-10T16:33:38.099Z,2.42
2023-03-10T16:38:40.660Z,3.42
2023-03-10T16:43:43.292Z,3.13
2023-03-10T16:48:47.865Z,4.07
2023-03-10T16:53:52.778Z,2.90
2023-03-10T16:58:56.799Z,3.00
2023-03-10T17:03:59.686Z,2.72
2023-03-10T17:09:05.952Z,1.98
2023-03-10T17:14:12.761Z,2.75
2023-03-10T17:19:20.524Z,1.50
2023-03-10T17:24:23.796Z,1.83
2023-03-10T17:29:26.010Z,2.50
2023-03-10T17:34:31.356Z,1.70
2023-03-10T17:39:35.489Z,1.80
2023-03-10T17:44:38.231Z,1.70
2023-03-10T17:49:42.189Z,1.48
2023-03-10T17:54:45.376Z,1.92
2023-03-10T17:59:47.583Z,2.88
2023-03-10T18:04:50.126Z,1.90
2023-03-10T18:09:52.309Z,2.17
2023-03-10T18:14:54.667Z,2.00
2023-03-10T18:19:57.092Z,2.05
2023-03-10T18:25:02.000Z,2.60
2023-03-10T18:30:05.377Z,2.83
2023-03-10T18:35:09.096Z,3.00
2023-03-10T18:40:18.756Z,3.67
2023-03-10T18:50:23.092Z,3.00
2023-03-10T18:55:25.320Z,3.13
2023-03-10T19:00:27.938Z,4.32
2023-03-10T19:05:30.263Z,4.30
2023-03-10T19:10:32.466Z,3.83
2023-03-10T19:15:35.168Z,3.05
2023-03-10T19:20:38.102Z,3.95
2023-03-10T19:25:40.331Z,3.35
2023-03-10T19:30:45.398Z,3.38
2023-03-10T19:35:47.768Z,3.25
2023-03-10T19:40:55.246Z,3.08
2023-03-10T19:46:02.042Z,3.88
2023-03-10T19:51:06.106Z,4.10
2023-03-10T19:56:09.205Z,3.92
2023-03-10T20:01:21.050Z,5.00
2023-03-10T20:06:23.827Z,3.90
2023-03-10T20:11:26.259Z,6.82
2023-03-10T20:16:28.744Z,6.55
2023-03-10T20:21:31.110Z,6.18
2023-03-10T20:26:33.501Z,4.82
2023-03-10T20:31:37.383Z,3.03
2023-03-10T20:36:40.120Z,4.57
2023-03-10T20:41:45.173Z,8.40
2023-03-10T20:46:47.373Z,9.32
2023-03-10T20:51:49.607Z,6.18
2023-03-10T20:56:51.965Z,3.25
2023-03-10T21:01:54.210Z,2.83
2023-03-10T21:06:56.412Z,3.20
2023-03-10T21:11:58.574Z,2.45
2023-03-10T21:17:01.966Z,2.67
2023-03-10T21:22:05.107Z,3.28
2023-03-10T21:27:09.571Z,3.35
2023-03-10T21:32:12.663Z,3.55
2023-03-10T21:37:15.719Z,3.72
2023-03-10T21:42:17.856Z,3.33
2023-03-10T21:47:20.836Z,2.78
2023-03-10T21:52:23.109Z,3.00
2023-03-10T21:57:26.069Z,2.70
2023-03-10T22:02:30.834Z,5.28
2023-03-10T22:07:33.847Z,2.97
2023-03-10T22:12:37.948Z,2.05
2023-03-10T22:17:40.179Z,2.17
2023-03-10T22:22:42.375Z,1.88
2023-03-10T22:28:07.222Z,1.70
2023-03-10T22:33:09.637Z,1.30
2023-03-10T22:38:13.967Z,1.50
2023-03-10T22:43:17.221Z,1.33
2023-03-10T22:48:20.179Z,1.15
2023-03-10T22:53:22.387Z,1.35
2023-03-10T22:58:24.587Z,0.98
2023-03-10T23:03:27.044Z,1.45
2023-03-10T23:08:30.174Z,1.20
2023-03-10T23:13:32.274Z,2.45
2023-03-10T23:18:34.655Z,2.35
2023-03-10T23:23:36.984Z,2.17
2023-03-10T23:28:40.059Z,2.25
2023-03-10T23:33:42.955Z,2.53
2023-03-10T23:38:45.257Z,2.58
2023-03-10T23:43:47.524Z,3.35
2023-03-10T23:48:50.040Z,2.30
2023-03-10T23:53:53.902Z,2.38
2023-03-10T23:58:59.200Z,2.45
